createdAt,value
2017-11-27T00:00:37.600Z,16.47
2017-11-27T00:03:39.546Z,12.37
2017-11-27T00:06:41.502Z,15.57
2017-11-27T00:09:43.500Z,10.33
2017-11-27T00:12:46.206Z,12.77
2017-11-27T00:15:48.146Z,17.40
2017-11-27T00:18:50.065Z,12.63
2017-11-27T00:21:52.010Z,12.33
2017-11-27T00:24:53.933Z,23.20
2017-11-27T00:27:55.934Z,15.73
2017-11-27T00:30:58.624Z,18.33
2017-11-27T00:34:00.609Z,17.13
2017-11-27T00:37:02.536Z,18.00
2017-11-27T00:40:05.082Z,13.90
2017-11-27T00:43:07.003Z,14.00
2017-11-27T00:46:08.984Z,18.23
2017-11-27T00:49:10.895Z,17.90
2017-11-27T00:52:12.881Z,17.73
2017-11-27T00:55:14.879Z,19.43
2017-11-27T00:58:16.827Z,18.57
2017-11-27T01:01:18.746Z,17.37
2017-11-27T01:04:20.742Z,21.30
2017-11-27T01:07:23.380Z,15.60
2017-11-27T01:10:25.346Z,18.73
2017-11-27T01:13:28.102Z,15.17
2017-11-27T01:16:30.110Z,21.50
2017-11-27T01:19:32.090Z,18.87
2017-11-27T01:22:34.076Z,18.10
2017-11-27T01:25:36.045Z,20.90
2017-11-27T01:28:37.988Z,20.13
2017-11-27T01:31:39.908Z,20.20
2017-11-27T01:34:41.845Z,25.50
2017-11-27T01:37:43.966Z,21.20
2017-11-27T01:40:45.917Z,21.83
2017-11-27T01:43:47.855Z,25.10
2017-11-27T01:46:49.804Z,23.47
2017-11-27T01:49:51.728Z,21.07
2017-11-27T01:52:54.447Z,24.47
2017-11-27T01:55:56.359Z,25.20
2017-11-27T01:58:58.864Z,28.37
2017-11-27T02:02:00.788Z,26.40
2017-11-27T02:05:03.569Z,30.03
2017-11-27T02:08:05.539Z,26.30
2017-11-27T02:11:07.516Z,27.77
2017-11-27T02:14:09.626Z,27.47
2017-11-27T02:17:11.542Z,27.13
2017-11-27T02:20:13.479Z,29.93
2017-11-27T02:23:15.483Z,27.13
2017-11-27T02:26:17.416Z,29.77
2017-11-27T02:29:19.381Z,33.53
2017-11-27T02:32:21.380Z,25.80
2017-11-27T02:35:23.328Z,28.03
2017-11-27T02:38:25.992Z,36.00
2017-11-27T02:41:28.702Z,31.10
2017-11-27T02:44:30.633Z,29.20
2017-11-27T02:47:32.557Z,31.13
2017-11-27T02:50:34.477Z,26.37
2017-11-27T02:53:37.298Z,26.10
2017-11-27T02:56:39.273Z,33.93
2017-11-27T02:59:41.199Z,29.73
2017-11-27T03:02:43.183Z,35.67
2017-11-27T03:05:45.107Z,26.97
2017-11-27T03:08:47.768Z,33.10
2017-11-27T03:11:49.700Z,30.70
2017-11-27T03:14:51.596Z,28.67
2017-11-27T03:17:53.550Z,28.47
2017-11-27T03:20:56.227Z,24.27
2017-11-27T03:23:58.209Z,27.70
2017-11-27T03:27:00.210Z,30.67
2017-11-27T03:30:02.929Z,30.83
2017-11-27T03:33:04.839Z,28.47
2017-11-27T03:36:06.752Z,29.47
2017-11-27T03:39:08.719Z,32.97
2017-11-27T03:42:10.722Z,32.03
2017-11-27T03:45:12.706Z,34.83
2017-11-27T03:48:14.696Z,31.43
2017-11-27T03:51:16.617Z,27.37
2017-11-27T03:54:18.541Z,27.67
2017-11-27T03:57:20.433Z,31.83
2017-11-27T04:00:22.359Z,27.57
2017-11-27T04:03:24.258Z,25.27
2017-11-27T04:06:26.205Z,23.40
2017-11-27T04:09:28.978Z,29.47
2017-11-27T04:12:30.919Z,26.07
2017-11-27T04:15:32.982Z,24.50
2017-11-27T04:18:34.894Z,27.73
2017-11-27T04:21:36.793Z,25.13
2017-11-27T04:24:39.438Z,24.00
2017-11-27T04:27:41.434Z,22.33
2017-11-27T04:30:43.360Z,25.47
2017-11-27T04:33:45.278Z,24.60
2017-11-27T04:36:47.963Z,24.37
2017-11-27T04:39:50.622Z,23.03
2017-11-27T04:42:53.038Z,25.53
2017-11-27T04:45:54.972Z,25.43
2017-11-27T04:48:56.994Z,23.10
2017-11-27T04:51:58.979Z,21.20
2017-11-27T04:55:00.943Z,23.33
2017-11-27T04:58:02.860Z,19.87
2017-11-27T05:01:04.802Z,23.43
2017-11-27T05:04:06.738Z,25.80
2017-11-27T05:07:09.571Z,26.87
2017-11-27T05:10:12.104Z,24.37
2017-11-27T05:13:14.168Z,17.53
2017-11-27T05:16:16.065Z,18.50
2017-11-27T05:19:17.990Z,21.57
2017-11-27T05:22:20.835Z,18.93
2017-11-27T05:25:22.760Z,22.83
2017-11-27T05:28:25.440Z,20.83
2017-11-27T05:31:27.444Z,17.73
2017-11-27T05:34:29.557Z,20.67
2017-11-27T05:37:32.307Z,19.90
2017-11-27T05:40:34.200Z,19.30
2017-11-27T05:43:36.174Z,19.67
2017-11-27T05:46:38.175Z,23.23
2017-11-27T05:49:40.120Z,17.73
2017-11-27T05:52:42.050Z,20.90
2017-11-27T05:55:44.810Z,21.03
2017-11-27T05:58:47.367Z,18.67
2017-11-27T06:01:50.139Z,16.63
2017-11-27T06:04:52.104Z,21.03
2017-11-27T06:07:54.116Z,21.73
2017-11-27T06:10:56.839Z,22.73
2017-11-27T06:13:58.768Z,22.73
2017-11-27T06:17:00.696Z,23.43
2017-11-27T06:20:03.410Z,22.13
2017-11-27T06:23:05.297Z,26.20
2017-11-27T06:26:07.330Z,24.20
2017-11-27T06:29:09.247Z,25.10
2017-11-27T06:32:11.990Z,23.90
2017-11-27T06:35:14.093Z,31.57
2017-11-27T06:38:16.037Z,29.13
2017-11-27T06:41:18.157Z,27.80
2017-11-27T06:44:20.116Z,25.33
2017-11-27T06:47:22.155Z,29.73
2017-11-27T06:50:24.843Z,29.63
2017-11-27T06:53:26.929Z,29.50
2017-11-27T06:56:28.853Z,31.17
2017-11-27T06:59:30.771Z,37.13
2017-11-27T07:02:32.711Z,34.07
2017-11-27T07:05:34.651Z,37.27
2017-11-27T07:08:36.590Z,30.10
2017-11-27T07:11:38.491Z,31.37
2017-11-27T07:14:40.510Z,35.07
2017-11-27T07:17:43.199Z,33.47
2017-11-27T07:20:45.399Z,36.97
2017-11-27T07:23:48.060Z,35.97
2017-11-27T07:26:49.978Z,40.80
2017-11-27T07:29:52.650Z,34.67
2017-11-27T07:32:54.751Z,32.93
2017-11-27T07:35:56.645Z,32.13
2017-11-27T07:38:58.630Z,35.47
2017-11-27T07:42:01.411Z,29.90
2017-11-27T07:45:03.341Z,33.27
2017-11-27T07:48:05.301Z,26.27
2017-11-27T07:51:07.985Z,27.77
2017-11-27T07:54:09.942Z,28.30
2017-11-27T07:57:11.861Z,34.13
2017-11-27T08:00:13.791Z,27.30
2017-11-27T08:03:15.728Z,25.80
2017-11-27T08:06:18.419Z,24.70
2017-11-27T08:09:20.352Z,25.53
2017-11-27T08:12:22.280Z,24.57
2017-11-27T08:15:25.006Z,24.73
2017-11-27T08:18:27.783Z,17.67
2017-11-27T08:21:29.709Z,27.23
2017-11-27T08:24:31.642Z,20.23
2017-11-27T08:27:34.324Z,19.60
2017-11-27T08:30:36.240Z,17.63
2017-11-27T08:33:38.195Z,21.43
2017-11-27T08:36:40.096Z,16.87
2017-11-27T08:39:42.042Z,17.37
2017-11-27T08:42:43.991Z,16.07
2017-11-27T08:45:46.671Z,20.20
2017-11-27T08:48:49.414Z,17.30
2017-11-27T08:51:51.361Z,18.20
2017-11-27T08:54:54.030Z,18.87
2017-11-27T08:57:55.976Z,14.57
2017-11-27T09:00:57.904Z,17.93
2017-11-27T09:03:59.853Z,21.13
2017-11-27T09:07:01.781Z,18.37
2017-11-27T09:10:03.736Z,23.17
2017-11-27T09:13:05.662Z,16.17
2017-11-27T09:16:08.343Z,22.73
2017-11-27T09:19:10.261Z,19.13
2017-11-27T09:22:12.974Z,16.23
2017-11-27T09:25:14.894Z,15.73
2017-11-27T09:28:16.831Z,16.60
2017-11-27T09:31:18.719Z,18.67
2017-11-27T09:34:20.643Z,13.37
2017-11-27T09:37:22.567Z,16.17
2017-11-27T09:40:25.274Z,15.60
2017-11-27T09:43:27.442Z,18.03
2017-11-27T09:46:29.365Z,12.80
2017-11-27T09:49:31.330Z,13.80
2017-11-27T09:52:33.357Z,15.27
2017-11-27T09:55:35.251Z,18.10
2017-11-27T09:58:37.177Z,14.27
2017-11-27T10:01:39.117Z,13.93
2017-11-27T10:04:41.067Z,12.17
2017-11-27T10:07:42.970Z,8.87
2017-11-27T10:10:44.894Z,14.63
2017-11-27T10:13:47.559Z,9.03
2017-11-27T10:16:49.474Z,13.40
2017-11-27T10:19:52.295Z,14.83
2017-11-27T10:22:54.215Z,8.77
2017-11-27T10:25:56.104Z,8.13
2017-11-27T10:28:59.651Z,9.60
2017-11-27T10:32:01.619Z,8.37
2017-11-27T10:35:04.020Z,9.77
2017-11-27T10:38:05.905Z,9.47
2017-11-27T10:41:07.883Z,9.87
2017-11-27T10:44:09.778Z,11.37
2017-11-27T10:47:12.454Z,8.07
2017-11-27T10:50:14.446Z,6.93
2017-11-27T10:53:16.382Z,7.03
2017-11-27T10:56:18.301Z,6.13
2017-11-27T10:59:20.225Z,7.80
2017-11-27T11:02:22.893Z,8.77
2017-11-27T11:05:24.859Z,10.10
2017-11-27T11:08:26.751Z,8.33
2017-11-27T11:11:28.685Z,7.43
2017-11-27T11:14:30.597Z,5.73
2017-11-27T11:17:32.520Z,5.90
2017-11-27T11:20:34.444Z,7.07
2017-11-27T11:23:36.397Z,7.60
2017-11-27T11:26:38.291Z,6.67
2017-11-27T11:29:40.228Z,8.50
2017-11-27T11:32:42.150Z,5.63
2017-11-27T11:35:44.855Z,6.57
2017-11-27T11:38:46.783Z,6.40
2017-11-27T11:41:48.698Z,10.77
2017-11-27T11:44:51.410Z,5.93
2017-11-27T11:47:54.091Z,6.17
2017-11-27T11:50:56.593Z,5.70
2017-11-27T11:53:59.298Z,6.23
2017-11-27T11:57:01.984Z,5.30
2017-11-27T12:00:03.959Z,5.23
2017-11-27T12:03:06.163Z,4.83
2017-11-27T12:06:08.864Z,4.63
2017-11-27T12:09:11.549Z,5.10
2017-11-27T12:12:13.497Z,3.90
2017-11-27T12:15:15.414Z,4.93
2017-11-27T12:18:19.493Z,5.27
2017-11-27T12:21:22.210Z,4.57
2017-11-27T12:24:24.131Z,4.60
2017-11-27T12:27:26.095Z,4.23
2017-11-27T12:30:28.060Z,4.53
2017-11-27T12:33:29.963Z,4.83
2017-11-27T12:36:31.878Z,4.37
2017-11-27T12:39:34.586Z,4.53
2017-11-27T12:42:36.515Z,4.10
2017-11-27T12:45:38.425Z,3.90
2017-11-27T12:48:40.349Z,4.20
2017-11-27T12:51:42.275Z,4.47
2017-11-27T12:54:44.226Z,3.90
2017-11-27T12:57:46.230Z,4.63
2017-11-27T13:00:48.220Z,4.00
2017-11-27T13:03:50.193Z,3.90
2017-11-27T13:06:52.140Z,3.50
2017-11-27T13:09:54.101Z,4.30
2017-11-27T13:12:56.788Z,4.63
2017-11-27T13:15:58.675Z,4.60
2017-11-27T13:19:00.655Z,4.97
2017-11-27T13:22:02.634Z,5.07
2017-11-27T13:25:06.107Z,4.07
2017-11-27T13:28:08.021Z,4.17
2017-11-27T13:31:09.980Z,5.33
2017-11-27T13:34:11.889Z,4.63
2017-11-27T13:37:13.863Z,4.50
2017-11-27T13:40:15.946Z,5.33
2017-11-27T13:43:17.865Z,4.93
2017-11-27T13:46:20.547Z,4.77
2017-11-27T13:49:22.495Z,13.97
2017-11-27T13:52:24.386Z,5.90
2017-11-27T13:55:26.334Z,11.60
2017-11-27T13:58:28.257Z,6.90
2017-11-27T14:01:30.241Z,4.97
2017-11-27T14:04:32.238Z,8.43
2017-11-27T14:07:34.209Z,6.13
2017-11-27T14:10:36.178Z,6.23
2017-11-27T14:13:38.098Z,5.97
2017-11-27T14:16:40.018Z,6.83
2017-11-27T14:19:41.933Z,9.03
2017-11-27T14:22:43.834Z,9.20
2017-11-27T14:25:45.753Z,8.17
2017-11-27T14:28:47.644Z,10.10
2017-11-27T14:31:49.559Z,16.63
2017-11-27T14:34:51.469Z,11.07
2017-11-27T14:37:54.149Z,9.97
2017-11-27T14:40:56.080Z,9.67
2017-11-27T14:43:57.990Z,9.93
2017-11-27T14:46:59.898Z,10.47
2017-11-27T14:50:02.555Z,7.87
2017-11-27T14:53:04.523Z,7.97
2017-11-27T14:56:06.476Z,8.33
2017-11-27T14:59:08.376Z,8.13
2017-11-27T15:02:11.072Z,8.40
2017-11-27T15:05:13.732Z,9.97
2017-11-27T15:08:15.653Z,9.10
2017-11-27T15:11:17.583Z,9.37
2017-11-27T15:14:19.528Z,9.63
2017-11-27T15:17:21.458Z,10.03
2017-11-27T15:20:23.376Z,9.53
2017-11-27T15:23:25.313Z,9.67
2017-11-27T15:26:27.273Z,11.27
2017-11-27T15:29:29.181Z,11.67
2017-11-27T15:32:31.132Z,10.67
2017-11-27T15:35:33.060Z,11.27
2017-11-27T15:38:36.485Z,11.77
2017-11-27T15:41:38.403Z,11.17
2017-11-27T15:44:40.341Z,12.63
2017-11-27T15:47:42.244Z,12.03
2017-11-27T15:50:44.955Z,12.43
2017-11-27T15:53:47.637Z,13.07
2017-11-27T15:56:49.837Z,13.83
2017-11-27T15:59:52.547Z,12.97
2017-11-27T16:02:54.475Z,12.67
2017-11-27T16:05:57.360Z,12.33
2017-11-27T16:08:59.492Z,13.17
2017-11-27T16:12:01.428Z,12.70
2017-11-27T16:15:03.388Z,15.03
2017-11-27T16:18:05.298Z,16.73
2017-11-27T16:21:07.256Z,16.40
2017-11-27T16:24:09.200Z,18.10
2017-11-27T16:27:11.794Z,17.03
2017-11-27T16:30:13.685Z,18.67
2017-11-27T16:33:16.259Z,17.50
2017-11-27T16:36:18.163Z,19.80
2017-11-27T16:39:20.118Z,20.07
2017-11-27T16:42:22.047Z,18.23
2017-11-27T16:45:24.766Z,19.17
2017-11-27T16:48:26.693Z,19.93
2017-11-27T16:51:28.653Z,20.23
2017-11-27T16:54:30.728Z,19.50
2017-11-27T16:57:32.683Z,20.93
2017-11-27T17:00:34.615Z,21.60
2017-11-27T17:03:36.550Z,22.50
2017-11-27T17:06:38.482Z,25.00
2017-11-27T17:09:40.429Z,19.47
2017-11-27T17:12:42.351Z,19.70
2017-11-27T17:15:44.283Z,19.90
2017-11-27T17:18:46.202Z,22.23
2017-11-27T17:21:48.204Z,21.17
2017-11-27T17:24:50.100Z,24.33
2017-11-27T17:27:52.657Z,24.60
2017-11-27T17:30:54.563Z,26.80
2017-11-27T17:33:56.606Z,22.53
2017-11-27T17:36:58.501Z,24.97
2017-11-27T17:40:00.469Z,25.23
2017-11-27T17:43:02.395Z,29.33
2017-11-27T17:46:04.348Z,25.33
2017-11-27T17:49:06.295Z,23.87
2017-11-27T17:52:09.047Z,25.53
2017-11-27T17:55:10.965Z,25.33
2017-11-27T17:58:13.663Z,27.40
2017-11-27T18:01:15.565Z,23.30
2017-11-27T18:04:17.560Z,24.13
2017-11-27T18:07:19.463Z,26.60
2017-11-27T18:10:21.499Z,24.90
2017-11-27T18:13:24.190Z,26.97
2017-11-27T18:16:26.383Z,25.13
2017-11-27T18:19:28.271Z,33.70
2017-11-27T18:22:30.986Z,22.97
2017-11-27T18:25:32.919Z,28.30
2017-11-27T18:28:34.861Z,26.87
2017-11-27T18:31:36.796Z,26.93
2017-11-27T18:34:38.757Z,31.00
2017-11-27T18:37:40.685Z,27.40
2017-11-27T18:40:43.754Z,25.30
2017-11-27T18:43:45.696Z,26.87
2017-11-27T18:46:47.651Z,31.40
2017-11-27T18:49:50.310Z,27.40
2017-11-27T18:52:52.232Z,28.50
2017-11-27T18:55:54.889Z,29.90
2017-11-27T18:58:57.852Z,27.93
2017-11-27T19:02:00.534Z,26.73
2017-11-27T19:05:02.499Z,26.20
2017-11-27T19:08:04.428Z,22.50
2017-11-27T19:11:06.385Z,29.13
2017-11-27T19:14:08.299Z,24.37
2017-11-27T19:17:10.389Z,23.43
2017-11-27T19:20:12.314Z,22.30
2017-11-27T19:23:14.335Z,21.17
2017-11-27T19:26:17.003Z,20.63
2017-11-27T19:29:18.966Z,18.57
2017-11-27T19:32:20.918Z,17.93
2017-11-27T19:35:22.874Z,20.43
2017-11-27T19:38:24.793Z,16.27
2017-11-27T19:41:26.714Z,18.17
2017-11-27T19:44:28.615Z,13.93
2017-11-27T19:47:30.570Z,13.33
2017-11-27T19:50:32.501Z,11.27
2017-11-27T19:53:35.193Z,11.67
2017-11-27T19:56:38.620Z,3.80
2017-11-27T19:59:41.984Z,2.60
2017-11-27T20:02:44.036Z,4.53
2017-11-27T20:05:46.004Z,2.73
2017-11-27T20:08:49.596Z,2.37
2017-11-27T20:11:51.510Z,3.87
2017-11-27T20:14:54.369Z,5.83
2017-11-27T20:17:57.159Z,1.43
2017-11-27T20:20:59.108Z,4.47
2017-11-27T20:24:01.804Z,5.27
2017-11-27T20:27:04.656Z,2.80
2017-11-27T20:30:06.566Z,2.63
2017-11-27T20:33:08.634Z,7.50
2017-11-27T20:36:10.586Z,2.57
2017-11-27T20:39:12.479Z,2.13
2017-11-27T20:42:14.413Z,2.93
2017-11-27T20:45:17.100Z,2.47
2017-11-27T20:48:19.071Z,3.60
2017-11-27T20:51:20.966Z,5.40
2017-11-27T20:54:22.887Z,3.50
2017-11-27T20:57:25.590Z,4.00
2017-11-27T21:00:28.485Z,4.03
2017-11-27T21:03:31.168Z,5.13
2017-11-27T21:06:33.121Z,4.63
2017-11-27T21:09:36.075Z,4.00
2017-11-27T21:12:38.267Z,3.70
2017-11-27T21:15:40.954Z,2.83
2017-11-27T21:18:42.894Z,2.57
2017-11-27T21:21:44.821Z,1.23
2017-11-27T21:24:46.736Z,0.50
2017-11-27T21:27:48.811Z,1.23
2017-11-27T21:30:52.474Z,0.50
2017-11-27T21:33:54.379Z,1.10
2017-11-27T21:36:56.333Z,1.10
2017-11-27T21:39:58.319Z,0.70
2017-11-27T21:43:00.278Z,2.23
2017-11-27T21:46:02.185Z,0.53
2017-11-27T21:49:04.103Z,0.43
2017-11-27T21:52:06.192Z,0.90
2017-11-27T21:55:08.949Z,0.80
2017-11-27T21:58:10.876Z,2.20
2017-11-27T22:01:12.793Z,1.80
2017-11-27T22:04:15.522Z,1.20
2017-11-27T22:07:17.447Z,2.00
2017-11-27T22:10:19.365Z,2.27
2017-11-27T22:13:21.308Z,2.20
2017-11-27T22:16:23.997Z,2.73
2017-11-27T22:19:26.012Z,2.30
2017-11-27T22:22:28.675Z,1.63
2017-11-27T22:25:30.595Z,2.57
2017-11-27T22:28:33.263Z,2.90
2017-11-27T22:31:35.239Z,2.90
2017-11-27T22:34:37.130Z,4.20
2017-11-27T22:37:39.073Z,5.57
2017-11-27T22:40:40.989Z,7.60
2017-11-27T22:43:42.932Z,7.80
2017-11-27T22:46:44.856Z,9.30
2017-11-27T22:49:47.562Z,13.63
2017-11-27T22:52:49.647Z,12.07
2017-11-27T22:55:51.589Z,11.30
2017-11-27T22:58:53.511Z,8.87
2017-11-27T23:01:55.422Z,11.80
2017-11-27T23:04:57.434Z,11.03
2017-11-27T23:07:59.373Z,13.70
2017-11-27T23:11:02.179Z,12.37
2017-11-27T23:14:04.858Z,9.63
2017-11-27T23:17:07.538Z,7.93
2017-11-27T23:20:09.462Z,7.53
2017-11-27T23:23:12.152Z,11.93
2017-11-27T23:26:15.857Z,9.77
2017-11-27T23:29:17.778Z,8.60
2017-11-27T23:32:19.751Z,11.23
2017-11-27T23:35:22.415Z,8.10
2017-11-27T23:38:24.342Z,9.03
2017-11-27T23:41:26.241Z,8.23
2017-11-27T23:44:28.174Z,8.77
2017-11-27T23:47:30.858Z,9.37
2017-11-27T23:50:32.949Z,6.70
2017-11-27T23:53:34.873Z,6.63
2017-11-27T23:56:36.789Z,7.03
2017-11-27T23:59:38.688Z,8.07
